WetterOnline ( https://www.wetteronline.de )

Wetter aktuell Zittau

Aktuelles Wetter: Görlitz (240m)

6-stündlich | Neueste Meldungen
Ortszeit Temperatur Wetter
Di, 18.02. 1:00 6.9° C bewölkt
Mo, 17.02. 19:00 8.8° C bedeckt
Mo, 17.02. 13:00 10.4° C bedeckt
Mo, 17.02. 7:00 10.7° C leichter Regen
Mo, 17.02. 1:00 11.0° C bedeckt
So, 16.02. 19:00 11.3° C bewölkt
So, 16.02. 13:00 10.0° C bedeckt
So, 16.02. 7:00 7.0° C wolkig
Ortszeit Temperatur Wetter
Di, 18.02. 5:10 6.8° C bewölkt
Di, 18.02. 5:00 7.2° C bedeckt
Di, 18.02. 4:50 7.2° C bedeckt
Di, 18.02. 4:40 7.3° C bedeckt
Di, 18.02. 4:30 5.8° C bedeckt
Di, 18.02. 4:20 5.8° C bedeckt
Di, 18.02. 4:00 6.4° C leicht bewölkt
Di, 18.02. 3:30 6.1° C wolkenlos
Di, 18.02. 3:00 6.2° C wolkenlos
Di, 18.02. 2:30 6.9° C leicht bewölkt
Di, 18.02. 2:00 7.2° C wolkig
Ortszeit Relative Feuchte Sichtweite
Di, 18.02. 1:00 76% 60 km
Mo, 17.02. 19:00 66% >70 km
Mo, 17.02. 13:00 63% >70 km
Mo, 17.02. 7:00 72% >70 km
Mo, 17.02. 1:00 49% 65 km
So, 16.02. 19:00 52% 55 km
So, 16.02. 13:00 52% >70 km
So, 16.02. 7:00 61% 55 km
Ortszeit Relative Feuchte Sichtweite
Di, 18.02. 5:10 69% -
Di, 18.02. 5:00 67% >70 km
Di, 18.02. 4:50 67% -
Di, 18.02. 4:40 65% -
Di, 18.02. 4:30 71% >70 km
Di, 18.02. 4:20 71% -
Di, 18.02. 4:00 69% >70 km
Di, 18.02. 3:30 69% 60 km
Di, 18.02. 3:00 69% >70 km
Di, 18.02. 2:30 68% >70 km
Di, 18.02. 2:00 68% >70 km
Ortszeit Niederschlagsmenge Niederschlagsart
Di, 18.02. 1:00 0.0 l/m2 in 6 Std. -
Mo, 17.02. 19:00 0.1 l/m2 in 12 Std. Regen
Mo, 17.02. 13:00 0.1 l/m2 in 6 Std. Regen
Mo, 17.02. 7:00 0.1 l/m2 in 12 Std. Regen
Mo, 17.02. 1:00 0.0 l/m2 in 6 Std. -
So, 16.02. 19:00 0.1 l/m2 in 12 Std. Regen
So, 16.02. 13:00 0.1 l/m2 in 6 Std. Regen
So, 16.02. 7:00 0.0 l/m2 in 12 Std. -
Ortszeit Niederschlagsmenge Niederschlagsart
Di, 18.02. 5:10 keine Meldung -
Di, 18.02. 5:00 0.0 l/m2 in 1 Std. -
Di, 18.02. 4:50 keine Meldung -
Di, 18.02. 4:40 keine Meldung -
Di, 18.02. 4:30 0.0 l/m2 in 1 Std. -
Di, 18.02. 4:20 keine Meldung -
Di, 18.02. 4:00 0.0 l/m2 in 1 Std. -
Di, 18.02. 3:30 0.0 l/m2 in 1 Std. -
Di, 18.02. 3:00 0.0 l/m2 in 1 Std. -
Di, 18.02. 2:30 0.0 l/m2 in 1 Std. -
Di, 18.02. 2:00 0.0 l/m2 in 1 Std. -
Ortszeit Stärke Spitze Richtung
km/h Bft. km/h Grad Sektor
Di, 18.02. 1:00 22 4 40 220° SW
Mo, 17.02. 19:00 25 4 40 210° SW
Mo, 17.02. 13:00 14 3 43 240° SW
Mo, 17.02. 7:00 26 4 74 240° SW
Mo, 17.02. 1:00 52 7 83 190° S
So, 16.02. 19:00 36 5 76 190° S
So, 16.02. 13:00 43 6 68 190° S
So, 16.02. 7:00 31 5 61 180° S
Ortszeit Stärke Spitze Richtung
km/h Bft. km/h Grad Sektor
Di, 18.02. 5:10 28 4 - 240° SW
Di, 18.02. 5:00 25 4 40 250° W
Di, 18.02. 4:50 25 4 - 250° W
Di, 18.02. 4:40 25 4 - 250° W
Di, 18.02. 4:30 19 3 31 220° SW
Di, 18.02. 4:20 19 3 - 220° SW
Di, 18.02. 4:00 20 4 33 230° SW
Di, 18.02. 3:30 18 3 32 240° SW
Di, 18.02. 3:00 14 3 32 250° W
Di, 18.02. 2:30 19 3 33 240° SW
Di, 18.02. 2:00 22 4 32 250° W
Ortszeit Untergrenze Bedeckung Gattung
total tief tief mittel hoch
Di, 18.02. 1:00 1800 m 8/8 4/8 - - -
Mo, 17.02. 19:00 1800 m 8/8 8/8 - - -
Mo, 17.02. 13:00 1800 m 8/8 8/8 - - -
Mo, 17.02. 7:00 1050 m 8/8 8/8 - - -
Mo, 17.02. 1:00 4800 m 8/8 8/8 - - -
So, 16.02. 19:00 6900 m 8/8 7/8 - - -
So, 16.02. 13:00 2400 m 8/8 8/8 - - -
So, 16.02. 7:00 4200 m 8/8 2/8 - - -
Ortszeit Bedeckungsgrad in Achtel und Wolkenuntergrenze
Di, 18.02. 5:10 2(990m) 7(2100m) 8(3300m)
Di, 18.02. 5:00 8(2100m) 8(3000m) 8(3300m)
Di, 18.02. 4:50 8(2100m) 8(3000m)
Di, 18.02. 4:40 1(1260m) 8(2100m)
Di, 18.02. 4:30 2(1290m) 8(2100m)
Di, 18.02. 4:20 2(1290m) 2(1500m) 8(2100m)
Di, 18.02. 4:00 1(1380m) 4(2100m)
Di, 18.02. 3:30 keine Wolken
Di, 18.02. 3:00 keine Wolken
Di, 18.02. 2:30 3(5400m)
Di, 18.02. 2:00 2(1080m) 8(5100m)
Ortszeit Luftdruck NN (hPa) Tendenz (hPa in 3 Std.)
Di, 18.02. 1:00 1017 + 0,7
Mo, 17.02. 19:00 1016 + 0,3
Mo, 17.02. 13:00 1016 - 0,4
Mo, 17.02. 7:00 1014 + 3,7
Mo, 17.02. 1:00 1009 + 0,3
So, 16.02. 19:00 1010 - 1,9
So, 16.02. 13:00 1014 - 1,7
So, 16.02. 7:00 1017 - 1,1
Ortszeit Luftdruck NN (hPa) Tendenz (hPa in 3 Std.)
Di, 18.02. 5:10 1018 keine Meldung
Di, 18.02. 5:00 1018 + 0,4
Di, 18.02. 4:50 1018 keine Meldung
Di, 18.02. 4:40 1018 keine Meldung
Di, 18.02. 4:30 1018 + 0,2
Di, 18.02. 4:20 1018 keine Meldung
Di, 18.02. 4:00 1018 + 0,6
Di, 18.02. 3:30 1018 + 0,7
Di, 18.02. 3:00 1018 + 0,9
Di, 18.02. 2:30 1018 + 0,9
Di, 18.02. 2:00 1018 + 1,1
Ortszeit Schneehöhe (cm)
Di, 18.02. 1:00 0
Mo, 17.02. 19:00 0
Mo, 17.02. 13:00 0
Mo, 17.02. 7:00 0
Mo, 17.02. 1:00 0
So, 16.02. 19:00 0
So, 16.02. 13:00 0
So, 16.02. 7:00 0
Ortszeit Schneehöhe (cm)
Di, 18.02. 5:10 0
Di, 18.02. 5:00 0
Di, 18.02. 4:50 0
Di, 18.02. 4:40 0
Di, 18.02. 4:30 0
Di, 18.02. 4:20 0
Di, 18.02. 4:00 0
Di, 18.02. 3:30 0
Di, 18.02. 3:00 0
Di, 18.02. 2:30 0
Di, 18.02. 2:00 0
Link zu dieser Seite / Seite empfehlen

Das Wetter in ...